sensor_id;sensor_type;location;lat;lon;timestamp;pressure;altitude;pressure_sealevel;temperature;humidity
19624;BME280;9959;49.798;9.928;2023-04-28T00:01:43;99548.84;;;10.00;72.30
19624;BME280;9959;49.798;9.928;2023-04-28T00:04:10;99544.50;;;10.05;71.71
19624;BME280;9959;49.798;9.928;2023-04-28T00:06:38;99546.97;;;10.07;70.63
19624;BME280;9959;49.798;9.928;2023-04-28T00:09:06;99544.09;;;10.02;69.98
19624;BME280;9959;49.798;9.928;2023-04-28T00:11:37;99533.31;;;10.02;69.74
19624;BME280;9959;49.798;9.928;2023-04-28T00:14:04;99532.69;;;10.06;69.68
19624;BME280;9959;49.798;9.928;2023-04-28T00:16:31;99531.25;;;10.04;69.39
19624;BME280;9959;49.798;9.928;2023-04-28T00:18:58;99520.06;;;10.00;69.66
19624;BME280;9959;49.798;9.928;2023-04-28T00:21:25;99520.47;;;10.04;69.42
19624;BME280;9959;49.798;9.928;2023-04-28T00:23:54;99520.06;;;10.00;69.76
19624;BME280;9959;49.798;9.928;2023-04-28T00:26:21;99526.34;;;9.74;75.12
19624;BME280;9959;49.798;9.928;2023-04-28T00:28:47;99519.09;;;9.68;76.26
19624;BME280;9959;49.798;9.928;2023-04-28T00:31:14;99518.88;;;9.63;76.83
19624;BME280;9959;49.798;9.928;2023-04-28T00:33:43;99522.81;;;9.74;76.60
19624;BME280;9959;49.798;9.928;2023-04-28T00:36:10;99514.97;;;9.72;76.47
19624;BME280;9959;49.798;9.928;2023-04-28T00:38:37;99519.50;;;9.65;75.83
19624;BME280;9959;49.798;9.928;2023-04-28T00:41:04;99514.13;;;9.65;75.40
19624;BME280;9959;49.798;9.928;2023-04-28T00:43:31;99500.69;;;9.65;76.46
19624;BME280;9959;49.798;9.928;2023-04-28T00:45:58;99512.91;;;9.55;77.39
19624;BME280;9959;49.798;9.928;2023-04-28T00:48:25;99504.41;;;9.58;77.45
19624;BME280;9959;49.798;9.928;2023-04-28T00:50:51;99500.47;;;9.60;77.33
19624;BME280;9959;49.798;9.928;2023-04-28T00:53:19;99501.97;;;9.56;77.23
19624;BME280;9959;49.798;9.928;2023-04-28T00:55:45;99497.56;;;9.68;75.15
19624;BME280;9959;49.798;9.928;2023-04-28T00:58:13;99493.22;;;9.67;75.94
19624;BME280;9959;49.798;9.928;2023-04-28T01:00:40;99478.97;;;9.60;76.27
19624;BME280;9959;49.798;9.928;2023-04-28T01:03:07;99490.34;;;9.62;76.10
19624;BME280;9959;49.798;9.928;2023-04-28T01:05:35;99485.38;;;9.59;75.99
19624;BME280;9959;49.798;9.928;2023-04-28T01:08:02;99480.41;;;9.69;75.75
19624;BME280;9959;49.798;9.928;2023-04-28T01:10:30;99479.38;;;9.64;76.34
19624;BME280;9959;49.798;9.928;2023-04-28T01:12:57;99477.72;;;9.69;77.22
19624;BME280;9959;49.798;9.928;2023-04-28T01:15:23;99476.25;;;9.73;77.67
19624;BME280;9959;49.798;9.928;2023-04-28T01:17:51;99476.88;;;9.69;77.66
19624;BME280;9959;49.798;9.928;2023-04-28T01:20:18;99478.34;;;9.65;77.72
19624;BME280;9959;49.798;9.928;2023-04-28T01:22:45;99473.38;;;9.68;77.16
19624;BME280;9959;49.798;9.928;2023-04-28T01:25:12;99473.78;;;9.78;76.80
19624;BME280;9959;49.798;9.928;2023-04-28T01:27:39;99468.00;;;9.68;76.37
19624;BME280;9959;49.798;9.928;2023-04-28T01:30:06;99468.00;;;9.68;76.03
19624;BME280;9959;49.798;9.928;2023-04-28T01:32:33;99460.13;;;9.73;75.62
19624;BME280;9959;49.798;9.928;2023-04-28T01:35:00;99454.13;;;9.78;75.00
19624;BME280;9959;49.798;9.928;2023-04-28T01:37:27;99457.59;;;9.85;71.92
19624;BME280;9959;49.798;9.928;2023-04-28T01:39:53;99457.38;;;9.87;70.71
19624;BME280;9959;49.798;9.928;2023-04-28T01:42:20;99453.44;;;9.96;69.85
19624;BME280;9959;49.798;9.928;2023-04-28T01:44:47;99440.16;;;10.01;68.69
19624;BME280;9959;49.798;9.928;2023-04-28T01:47:14;99446.78;;;9.98;68.06
19624;BME280;9959;49.798;9.928;2023-04-28T01:49:41;99449.28;;;10.00;67.29
19624;BME280;9959;49.798;9.928;2023-04-28T01:52:08;99445.78;;;9.93;67.87
19624;BME280;9959;49.798;9.928;2023-04-28T01:54:35;99437.09;;;9.91;67.89
19624;BME280;9959;49.798;9.928;2023-04-28T01:57:01;99430.66;;;9.92;67.93
19624;BME280;9959;49.798;9.928;2023-04-28T01:59:29;99433.56;;;9.97;67.54
19624;BME280;9959;49.798;9.928;2023-04-28T02:01:55;99426.31;;;9.91;67.87
19624;BME280;9959;49.798;9.928;2023-04-28T02:04:23;99425.91;;;9.94;67.88
19624;BME280;9959;49.798;9.928;2023-04-28T02:06:50;99430.66;;;9.98;67.81
19624;BME280;9959;49.798;9.928;2023-04-28T02:09:17;99423.41;;;9.92;67.32
19624;BME280;9959;49.798;9.928;2023-04-28T02:11:43;99428.59;;;9.94;67.36
19624;BME280;9959;49.798;9.928;2023-04-28T02:14:10;99431.69;;;9.91;67.20
19624;BME280;9959;49.798;9.928;2023-04-28T02:16:37;99425.28;;;9.92;67.16
19624;BME280;9959;49.798;9.928;2023-04-28T02:19:04;99417.22;;;9.92;67.37
19624;BME280;9959;49.798;9.928;2023-04-28T02:21:31;99412.03;;;9.97;66.71
19624;BME280;9959;49.798;9.928;2023-04-28T02:23:58;99409.13;;;9.98;66.83
19624;BME280;9959;49.798;9.928;2023-04-28T02:26:25;99411.59;;;10.00;66.20
19624;BME280;9959;49.798;9.928;2023-04-28T02:28:52;99415.75;;;9.96;65.89
19624;BME280;9959;49.798;9.928;2023-04-28T02:31:19;99410.38;;;9.96;65.62
19624;BME280;9959;49.798;9.928;2023-04-28T02:33:45;99400.03;;;9.93;65.49
19624;BME280;9959;49.798;9.928;2023-04-28T02:36:12;99401.69;;;9.94;65.31
19624;BME280;9959;49.798;9.928;2023-04-28T02:38:39;99399.19;;;9.99;65.04
19624;BME280;9959;49.798;9.928;2023-04-28T02:41:07;99397.09;;;10.01;64.51
19624;BME280;9959;49.798;9.928;2023-04-28T02:43:35;99400.84;;;10.00;64.68
19624;BME280;9959;49.798;9.928;2023-04-28T02:46:03;99395.44;;;10.00;64.46
19624;BME280;9959;49.798;9.928;2023-04-28T02:48:30;99389.25;;;9.99;64.79
19624;BME280;9959;49.798;9.928;2023-04-28T02:50:59;99388.38;;;10.12;64.55
19624;BME280;9959;49.798;9.928;2023-04-28T02:53:26;99389.16;;;10.12;64.50
19624;BME280;9959;49.798;9.928;2023-04-28T02:55:53;99387.75;;;10.10;64.42
19624;BME280;9959;49.798;9.928;2023-04-28T02:58:20;99384.03;;;10.11;64.58
19624;BME280;9959;49.798;9.928;2023-04-28T03:00:47;99383.00;;;10.05;64.50
19624;BME280;9959;49.798;9.928;2023-04-28T03:03:14;99380.94;;;10.07;64.42
19624;BME280;9959;49.798;9.928;2023-04-28T03:05:41;99380.09;;;10.07;64.43
19624;BME280;9959;49.798;9.928;2023-04-28T03:08:08;99384.25;;;10.03;64.62
19624;BME280;9959;49.798;9.928;2023-04-28T03:10:35;99384.50;;;9.95;65.04
19624;BME280;9959;49.798;9.928;2023-04-28T03:13:02;99382.19;;;10.05;65.02
19624;BME280;9959;49.798;9.928;2023-04-28T03:15:28;99374.72;;;10.07;64.93
19624;BME280;9959;49.798;9.928;2023-04-28T03:17:55;99374.72;;;10.07;66.17
19624;BME280;9959;49.798;9.928;2023-04-28T03:20:22;99380.75;;;9.96;69.68
19624;BME280;9959;49.798;9.928;2023-04-28T03:22:49;99368.59;;;9.87;71.22
19624;BME280;9959;49.798;9.928;2023-04-28T03:25:16;99372.31;;;9.85;68.92
19624;BME280;9959;49.798;9.928;2023-04-28T03:27:42;99377.81;;;9.59;75.84
19624;BME280;9959;49.798;9.928;2023-04-28T03:30:10;99370.34;;;9.61;77.65
19624;BME280;9959;49.798;9.928;2023-04-28T03:32:37;99374.94;;;9.54;78.37
19624;BME280;9959;49.798;9.928;2023-04-28T03:35:04;99375.97;;;9.53;78.90
19624;BME280;9959;49.798;9.928;2023-04-28T03:37:31;99373.66;;;9.63;79.00
19624;BME280;9959;49.798;9.928;2023-04-28T03:39:58;99370.13;;;9.63;79.64
19624;BME280;9959;49.798;9.928;2023-04-28T03:42:25;99363.75;;;9.57;81.96
19624;BME280;9959;49.798;9.928;2023-04-28T03:44:52;99363.59;;;9.39;82.10
19624;BME280;9959;49.798;9.928;2023-04-28T03:47:19;99364.00;;;9.36;86.30
19624;BME280;9959;49.798;9.928;2023-04-28T03:49:46;99376.19;;;9.45;87.15
19624;BME280;9959;49.798;9.928;2023-04-28T03:52:13;99377.25;;;9.31;85.84
19624;BME280;9959;49.798;9.928;2023-04-28T03:54:39;99374.81;;;9.16;86.22
19624;BME280;9959;49.798;9.928;2023-04-28T03:57:06;99370.69;;;9.13;88.44
19624;BME280;9959;49.798;9.928;2023-04-28T03:59:33;99361.78;;;9.06;88.35
19624;BME280;9959;49.798;9.928;2023-04-28T04:02:00;99355.59;;;9.06;89.80
19624;BME280;9959;49.798;9.928;2023-04-28T04:04:27;99348.81;;;8.97;89.00
19624;BME280;9959;49.798;9.928;2023-04-28T04:06:54;99341.56;;;8.91;88.73
19624;BME280;9959;49.798;9.928;2023-04-28T04:09:21;99348.19;;;8.95;90.06
19624;BME280;9959;49.798;9.928;2023-04-28T04:11:48;99357.69;;;8.91;92.34
19624;BME280;9959;49.798;9.928;2023-04-28T04:14:14;99364.31;;;8.88;91.95
19624;BME280;9959;49.798;9.928;2023-04-28T04:16:42;99366.38;;;8.86;91.28
19624;BME280;9959;49.798;9.928;2023-04-28T04:19:09;99365.53;;;8.92;92.00
19624;BME280;9959;49.798;9.928;2023-04-28T04:21:36;99353.56;;;8.88;92.32
19624;BME280;9959;49.798;9.928;2023-04-28T04:24:03;99355.22;;;8.89;93.13
19624;BME280;9959;49.798;9.928;2023-04-28T04:26:29;99357.28;;;8.87;92.09
19624;BME280;9959;49.798;9.928;2023-04-28T04:28:56;99356.44;;;8.87;92.63
19624;BME280;9959;49.798;9.928;2023-04-28T04:31:23;99351.28;;;8.85;93.32
19624;BME280;9959;49.798;9.928;2023-04-28T04:33:50;99349.84;;;8.89;93.66
19624;BME280;9959;49.798;9.928;2023-04-28T04:36:17;99342.41;;;8.91;94.55
19624;BME280;9959;49.798;9.928;2023-04-28T04:38:44;99337.03;;;8.91;93.69
19624;BME280;9959;49.798;9.928;2023-04-28T04:41:11;99334.97;;;8.93;93.17
19624;BME280;9959;49.798;9.928;2023-04-28T04:43:37;99328.97;;;8.98;92.48
19624;BME280;9959;49.798;9.928;2023-04-28T04:46:04;99333.31;;;8.92;91.50
19624;BME280;9959;49.798;9.928;2023-04-28T04:48:31;99331.41;;;9.06;93.33
19624;BME280;9959;49.798;9.928;2023-04-28T04:50:58;99333.72;;;9.02;93.67
19624;BME280;9959;49.798;9.928;2023-04-28T04:53:25;99337.41;;;9.14;94.81
19624;BME280;9959;49.798;9.928;2023-04-28T04:55:52;99333.94;;;8.94;93.27
19624;BME280;9959;49.798;9.928;2023-04-28T04:58:18;99337.84;;;8.98;93.68
19624;BME280;9959;49.798;9.928;2023-04-28T05:00:46;99328.31;;;9.09;95.33
19624;BME280;9959;49.798;9.928;2023-04-28T05:03:12;99326.88;;;9.06;95.09
19624;BME280;9959;49.798;9.928;2023-04-28T05:05:40;99320.25;;;9.09;97.53
19624;BME280;9959;49.798;9.928;2023-04-28T05:08:08;99317.56;;;9.15;95.94
19624;BME280;9959;49.798;9.928;2023-04-28T05:10:34;99325.63;;;9.15;95.86
19624;BME280;9959;49.798;9.928;2023-04-28T05:13:02;99339.03;;;9.29;96.34
19624;BME280;9959;49.798;9.928;2023-04-28T05:15:29;99317.09;;;9.32;96.28
19624;BME280;9959;49.798;9.928;2023-04-28T05:17:56;99319.97;;;9.37;94.12
19624;BME280;9959;49.798;9.928;2023-04-28T05:20:23;99309.19;;;9.43;95.64
19624;BME280;9959;49.798;9.928;2023-04-28T05:22:50;99312.16;;;9.29;92.54
19624;BME280;9959;49.798;9.928;2023-04-28T05:25:17;99308.81;;;9.33;92.19
19624;BME280;9959;49.798;9.928;2023-04-28T05:27:44;99307.56;;;9.36;94.24
19624;BME280;9959;49.798;9.928;2023-04-28T05:30:11;99305.28;;;9.33;92.28
19624;BME280;9959;49.798;9.928;2023-04-28T05:32:37;99300.91;;;9.45;93.33
19624;BME280;9959;49.798;9.928;2023-04-28T05:35:05;99306.88;;;9.54;92.11
19624;BME280;9959;49.798;9.928;2023-04-28T05:37:32;99307.94;;;9.53;93.23
19624;BME280;9959;49.798;9.928;2023-04-28T05:39:58;99308.78;;;9.40;93.27
19624;BME280;9959;49.798;9.928;2023-04-28T05:42:26;99298.00;;;9.46;91.54
19624;BME280;9959;49.798;9.928;2023-04-28T05:44:52;99303.41;;;9.40;91.17
19624;BME280;9959;49.798;9.928;2023-04-28T05:47:20;99307.56;;;9.36;89.84
19624;BME280;9959;49.798;9.928;2023-04-28T05:49:46;99302.94;;;9.56;90.57
19624;BME280;9959;49.798;9.928;2023-04-28T05:52:13;99304.59;;;9.57;90.75
19624;BME280;9959;49.798;9.928;2023-04-28T05:54:40;99307.03;;;9.65;89.50
19624;BME280;9959;49.798;9.928;2023-04-28T05:57:07;99313.88;;;9.61;89.26
19624;BME280;9959;49.798;9.928;2023-04-28T05:59:34;99303.69;;;9.70;89.84
19624;BME280;9959;49.798;9.928;2023-04-28T06:02:01;99310.50;;;9.72;89.99
19624;BME280;9959;49.798;9.928;2023-04-28T06:04:27;99317.78;;;9.65;91.50
19624;BME280;9959;49.798;9.928;2023-04-28T06:06:55;99319.03;;;9.63;94.43
19624;BME280;9959;49.798;9.928;2023-04-28T06:09:22;99319.47;;;9.60;95.25
19624;BME280;9959;49.798;9.928;2023-04-28T06:11:48;99317.84;;;9.52;96.83
19624;BME280;9959;49.798;9.928;2023-04-28T06:14:15;99309.66;;;9.78;96.13
19624;BME280;9959;49.798;9.928;2023-04-28T06:16:43;99296.03;;;10.11;93.52
19624;BME280;9959;49.798;9.928;2023-04-28T06:19:10;99298.50;;;9.75;94.80
19624;BME280;9959;49.798;9.928;2023-04-28T06:21:37;99296.63;;;9.82;95.50
19624;BME280;9959;49.798;9.928;2023-04-28T06:24:07;99297.78;;;9.93;98.65
19624;BME280;9959;49.798;9.928;2023-04-28T06:26:34;99293.09;;;10.13;98.38
19624;BME280;9959;49.798;9.928;2023-04-28T06:29:00;99295.13;;;9.48;96.38
19624;BME280;9959;49.798;9.928;2023-04-28T06:31:27;99292.44;;;9.48;96.83
19624;BME280;9959;49.798;9.928;2023-04-28T06:33:54;99298.00;;;9.53;99.72
19624;BME280;9959;49.798;9.928;2023-04-28T06:36:21;99299.78;;;9.66;100.00
19624;BME280;9959;49.798;9.928;2023-04-28T06:38:48;99304.72;;;9.75;100.00
19624;BME280;9959;49.798;9.928;2023-04-28T06:41:15;99307.44;;;9.62;100.00
19624;BME280;9959;49.798;9.928;2023-04-28T06:43:42;99311.03;;;9.56;100.00
19624;BME280;9959;49.798;9.928;2023-04-28T06:46:10;99312.06;;;9.48;100.00
19624;BME280;9959;49.798;9.928;2023-04-28T06:48:37;99323.91;;;9.34;100.00
19624;BME280;9959;49.798;9.928;2023-04-28T06:51:04;99326.22;;;9.18;100.00
19624;BME280;9959;49.798;9.928;2023-04-28T06:53:31;99333.06;;;9.13;100.00
19624;BME280;9959;49.798;9.928;2023-04-28T06:55:58;99323.75;;;9.09;100.00
19624;BME280;9959;49.798;9.928;2023-04-28T06:58:24;99331.19;;;9.07;100.00
19624;BME280;9959;49.798;9.928;2023-04-28T07:00:51;99328.34;;;9.02;100.00
19624;BME280;9959;49.798;9.928;2023-04-28T07:03:19;99327.91;;;9.05;100.00
19624;BME280;9959;49.798;9.928;2023-04-28T07:05:53;99332.28;;;9.00;100.00
19624;BME280;9959;49.798;9.928;2023-04-28T07:08:20;99324.22;;;9.00;100.00
19624;BME280;9959;49.798;9.928;2023-04-28T07:10:47;99329.97;;;9.03;100.00
19624;BME280;9959;49.798;9.928;2023-04-28T07:13:14;99334.97;;;8.93;100.00
19624;BME280;9959;49.798;9.928;2023-04-28T07:15:41;99335.59;;;8.89;100.00
19624;BME280;9959;49.798;9.928;2023-04-28T07:18:08;99343.03;;;8.80;100.00
19624;BME280;9959;49.798;9.928;2023-04-28T07:20:35;99348.19;;;8.81;100.00
19624;BME280;9959;49.798;9.928;2023-04-28T07:23:02;99339.09;;;8.96;100.00
19624;BME280;9959;49.798;9.928;2023-04-28T07:25:30;99328.16;;;8.97;100.00
19624;BME280;9959;49.798;9.928;2023-04-28T07:27:57;99322.34;;;8.87;100.00
19624;BME280;9959;49.798;9.928;2023-04-28T07:30:23;99316.38;;;8.92;100.00
19624;BME280;9959;49.798;9.928;2023-04-28T07:32:53;99321.06;;;9.16;100.00
19624;BME280;9959;49.798;9.928;2023-04-28T07:35:20;99325.81;;;9.07;100.00
19624;BME280;9959;49.798;9.928;2023-04-28T07:37:47;99334.09;;;9.12;100.00
19624;BME280;9959;49.798;9.928;2023-04-28T07:40:14;99333.25;;;9.19;100.00
19624;BME280;9959;49.798;9.928;2023-04-28T07:42:41;99325.63;;;9.15;100.00
19624;BME280;9959;49.798;9.928;2023-04-28T07:45:08;99323.69;;;9.36;100.00
19624;BME280;9959;49.798;9.928;2023-04-28T07:47:35;99322.72;;;9.17;100.00
19624;BME280;9959;49.798;9.928;2023-04-28T07:50:02;99318.59;;;9.14;100.00
19624;BME280;9959;49.798;9.928;2023-04-28T07:52:31;99335.16;;;8.98;100.00
19624;BME280;9959;49.798;9.928;2023-04-28T07:54:58;99345.09;;;8.91;100.00
19624;BME280;9959;49.798;9.928;2023-04-28T07:57:25;99340.75;;;8.97;100.00
19624;BME280;9959;49.798;9.928;2023-04-28T07:59:52;99333.31;;;8.92;100.00
19624;BME280;9959;49.798;9.928;2023-04-28T08:02:19;99316.78;;;8.95;100.00
19624;BME280;9959;49.798;9.928;2023-04-28T08:04:47;99318.63;;;9.01;100.00
19624;BME280;9959;49.798;9.928;2023-04-28T08:07:14;99319.22;;;9.03;100.00
19624;BME280;9959;49.798;9.928;2023-04-28T08:09:40;99323.13;;;9.21;100.00
19624;BME280;9959;49.798;9.928;2023-04-28T08:12:13;99307.19;;;9.26;100.00
19624;BME280;9959;49.798;9.928;2023-04-28T08:14:40;99308.44;;;9.23;100.00
19624;BME280;9959;49.798;9.928;2023-04-28T08:17:07;99307.22;;;9.12;100.00
19624;BME280;9959;49.798;9.928;2023-04-28T08:19:33;99316.50;;;9.16;100.00
19624;BME280;9959;49.798;9.928;2023-04-28T08:22:00;99317.03;;;9.45;100.00
19624;BME280;9959;49.798;9.928;2023-04-28T08:24:32;99324.31;;;9.38;100.00
19624;BME280;9959;49.798;9.928;2023-04-28T08:27:02;99316.59;;;9.55;100.00
19624;BME280;9959;49.798;9.928;2023-04-28T08:29:30;99310.78;;;9.58;100.00
19624;BME280;9959;49.798;9.928;2023-04-28T08:31:58;99299.56;;;9.67;100.00
19624;BME280;9959;49.798;9.928;2023-04-28T08:34:25;99296.56;;;9.89;100.00
19624;BME280;9959;49.798;9.928;2023-04-28T08:36:52;99311.41;;;9.98;100.00
19624;BME280;9959;49.798;9.928;2023-04-28T08:39:19;99318.03;;;10.02;100.00
19624;BME280;9959;49.798;9.928;2023-04-28T08:41:48;99312.53;;;10.15;100.00
19624;BME280;9959;49.798;9.928;2023-04-28T08:44:14;99309.03;;;10.14;100.00
19624;BME280;9959;49.798;9.928;2023-04-28T08:46:44;99308.03;;;10.09;100.00
19624;BME280;9959;49.798;9.928;2023-04-28T08:49:14;99304.75;;;10.07;100.00
19624;BME280;9959;49.798;9.928;2023-04-28T08:51:58;99304.31;;;10.10;100.00
19624;BME280;9959;49.798;9.928;2023-04-28T08:54:34;99308.16;;;10.27;100.00
19624;BME280;9959;49.798;9.928;2023-04-28T08:57:02;99309.16;;;10.33;100.00
19624;BME280;9959;49.798;9.928;2023-04-28T08:59:30;99304.47;;;10.46;100.00
19624;BME280;9959;49.798;9.928;2023-04-28T09:01:58;99276.22;;;10.56;100.00
19624;BME280;9959;49.798;9.928;2023-04-28T09:04:26;99262.97;;;10.54;100.00
19624;BME280;9959;49.798;9.928;2023-04-28T09:06:53;99275.44;;;10.48;100.00
19624;BME280;9959;49.798;9.928;2023-04-28T09:09:27;99275.44;;;10.24;100.00
19624;BME280;9959;49.798;9.928;2023-04-28T09:12:02;99271.84;;;10.36;100.00
19624;BME280;9959;49.798;9.928;2023-04-28T09:14:32;99269.25;;;10.48;100.00
19624;BME280;9959;49.798;9.928;2023-04-28T09:17:00;99284.28;;;10.37;100.00
19624;BME280;9959;49.798;9.928;2023-04-28T09:19:35;99280.66;;;10.43;100.00
19624;BME280;9959;49.798;9.928;2023-04-28T09:22:03;99281.78;;;10.61;100.00
19624;BME280;9959;49.798;9.928;2023-04-28T09:24:52;99274.16;;;10.58;100.00
19624;BME280;9959;49.798;9.928;2023-04-28T09:27:25;99275.88;;;10.70;100.00
19624;BME280;9959;49.798;9.928;2023-04-28T09:29:53;99272.94;;;10.54;100.00
19624;BME280;9959;49.798;9.928;2023-04-28T09:32:21;99275.06;;;10.70;100.00
19624;BME280;9959;49.798;9.928;2023-04-28T09:34:51;99277.63;;;10.83;100.00
19624;BME280;9959;49.798;9.928;2023-04-28T09:37:20;99279.84;;;10.68;100.00
19624;BME280;9959;49.798;9.928;2023-04-28T09:39:50;99286.44;;;10.72;100.00
19624;BME280;9959;49.798;9.928;2023-04-28T09:42:37;99278.53;;;10.52;100.00
19624;BME280;9959;49.798;9.928;2023-04-28T09:45:06;99276.19;;;10.62;100.00
19624;BME280;9959;49.798;9.928;2023-04-28T09:47:41;99277.97;;;10.93;100.00
19624;BME280;9959;49.798;9.928;2023-04-28T09:50:10;99275.72;;;11.08;100.00
19624;BME280;9959;49.798;9.928;2023-04-28T09:52:41;99277.19;;;11.04;100.00
19624;BME280;9959;49.798;9.928;2023-04-28T09:55:11;99281.38;;;11.00;100.00
19624;BME280;9959;49.798;9.928;2023-04-28T09:57:38;99285.28;;;11.23;100.00
19624;BME280;9959;49.798;9.928;2023-04-28T10:00:06;99281.84;;;11.15;100.00
19624;BME280;9959;49.798;9.928;2023-04-28T10:02:36;99280.50;;;11.06;100.00
19624;BME280;9959;49.798;9.928;2023-04-28T10:05:07;99281.81;;;10.97;100.00
19624;BME280;9959;49.798;9.928;2023-04-28T10:07:37;99268.44;;;10.91;100.00
19624;BME280;9959;49.798;9.928;2023-04-28T10:10:06;99274.28;;;10.88;100.00
19624;BME280;9959;49.798;9.928;2023-04-28T10:12:33;99269.88;;;11.11;100.00
19624;BME280;9959;49.798;9.928;2023-04-28T10:15:06;99265.44;;;11.35;100.00
19624;BME280;9959;49.798;9.928;2023-04-28T10:17:33;99267.16;;;11.30;100.00
19624;BME280;9959;49.798;9.928;2023-04-28T10:20:02;99265.28;;;11.30;100.00
19624;BME280;9959;49.798;9.928;2023-04-28T10:25:34;99272.22;;;11.74;100.00
19624;BME280;9959;49.798;9.928;2023-04-28T10:28:06;99266.16;;;11.61;100.00
19624;BME280;9959;49.798;9.928;2023-04-28T10:30:34;99266.47;;;11.52;100.00
19624;BME280;9959;49.798;9.928;2023-04-28T10:38:18;99261.47;;;11.86;100.00
19624;BME280;9959;49.798;9.928;2023-04-28T10:40:51;99253.03;;;12.24;100.00
19624;BME280;9959;49.798;9.928;2023-04-28T10:56:18;99251.66;;;12.57;100.00
19624;BME280;9959;49.798;9.928;2023-04-28T10:58:48;99254.22;;;12.86;100.00
19624;BME280;9959;49.798;9.928;2023-04-28T11:04:05;99252.22;;;12.59;100.00
19624;BME280;9959;49.798;9.928;2023-04-28T11:06:40;99255.28;;;12.50;100.00
19624;BME280;9959;49.798;9.928;2023-04-28T11:19:36;99236.13;;;13.50;100.00
19624;BME280;9959;49.798;9.928;2023-04-28T11:22:19;99239.53;;;14.03;100.00
19624;BME280;9959;49.798;9.928;2023-04-28T11:25:02;99244.78;;;13.93;100.00
19624;BME280;9959;49.798;9.928;2023-04-28T11:27:31;99245.28;;;14.23;98.43
19624;BME280;9959;49.798;9.928;2023-04-28T11:29:59;99237.38;;;14.67;92.49
19624;BME280;9959;49.798;9.928;2023-04-28T11:32:29;99230.66;;;14.91;93.09
19624;BME280;9959;49.798;9.928;2023-04-28T11:34:56;99229.28;;;15.10;91.65
19624;BME280;9959;49.798;9.928;2023-04-28T11:37:23;99241.66;;;14.46;95.37
19624;BME280;9959;49.798;9.928;2023-04-28T11:39:51;99234.66;;;14.67;94.32
19624;BME280;9959;49.798;9.928;2023-04-28T11:42:18;99235.03;;;14.92;91.48
19624;BME280;9959;49.798;9.928;2023-04-28T11:44:50;99240.84;;;15.01;93.02
19624;BME280;9959;49.798;9.928;2023-04-28T11:47:30;99235.44;;;14.84;91.53
19624;BME280;9959;49.798;9.928;2023-04-28T11:49:58;99243.94;;;15.09;90.98
19624;BME280;9959;49.798;9.928;2023-04-28T11:52:27;99235.59;;;14.94;90.75
19624;BME280;9959;49.798;9.928;2023-04-28T11:54:55;99225.25;;;15.78;86.84
19624;BME280;9959;49.798;9.928;2023-04-28T11:57:23;99230.75;;;15.83;87.22
19624;BME280;9959;49.798;9.928;2023-04-28T11:59:51;99220.69;;;14.75;92.34
19624;BME280;9959;49.798;9.928;2023-04-28T12:02:27;99224.75;;;15.81;88.16
19624;BME280;9959;49.798;9.928;2023-04-28T12:05:05;99216.41;;;15.93;88.42
19624;BME280;9959;49.798;9.928;2023-04-28T12:07:41;99223.97;;;16.18;86.56
19624;BME280;9959;49.798;9.928;2023-04-28T12:10:11;99229.91;;;16.10;85.48
19624;BME280;9959;49.798;9.928;2023-04-28T12:12:38;99231.38;;;16.22;85.90
19624;BME280;9959;49.798;9.928;2023-04-28T12:15:16;99225.94;;;16.22;85.71
19624;BME280;9959;49.798;9.928;2023-04-28T12:17:46;99231.31;;;15.85;87.04
19624;BME280;9959;49.798;9.928;2023-04-28T12:20:34;99232.78;;;16.30;86.76
19624;BME280;9959;49.798;9.928;2023-04-28T12:23:01;99228.19;;;16.31;85.26
19624;BME280;9959;49.798;9.928;2023-04-28T12:25:28;99225.19;;;16.32;85.68
19624;BME280;9959;49.798;9.928;2023-04-28T12:28:04;99217.50;;;16.98;82.75
19624;BME280;9959;49.798;9.928;2023-04-28T12:30:35;99209.31;;;16.88;83.93
19624;BME280;9959;49.798;9.928;2023-04-28T12:33:26;99210.41;;;16.97;83.74
19624;BME280;9959;49.798;9.928;2023-04-28T12:35:56;99207.09;;;16.48;84.17
19624;BME280;9959;49.798;9.928;2023-04-28T12:38:24;99219.91;;;16.52;85.31
19624;BME280;9959;49.798;9.928;2023-04-28T12:40:51;99231.41;;;16.59;84.86
19624;BME280;9959;49.798;9.928;2023-04-28T12:43:18;99226.31;;;16.36;86.73
19624;BME280;9959;49.798;9.928;2023-04-28T12:45:46;99222.94;;;16.24;86.42
19624;BME280;9959;49.798;9.928;2023-04-28T12:48:13;99229.66;;;15.84;88.43
19624;BME280;9959;49.798;9.928;2023-04-28T12:50:40;99229.75;;;16.58;85.09
19624;BME280;9959;49.798;9.928;2023-04-28T12:53:07;99240.47;;;15.79;88.79
19624;BME280;9959;49.798;9.928;2023-04-28T12:55:34;99221.03;;;16.56;85.06
19624;BME280;9959;49.798;9.928;2023-04-28T12:58:00;99225.94;;;15.96;88.36
19624;BME280;9959;49.798;9.928;2023-04-28T13:00:27;99236.44;;;15.87;88.87
19624;BME280;9959;49.798;9.928;2023-04-28T13:02:54;99235.94;;;15.63;89.78
19624;BME280;9959;49.798;9.928;2023-04-28T13:05:24;99232.53;;;16.64;85.90
19624;BME280;9959;49.798;9.928;2023-04-28T13:07:52;99231.09;;;16.24;86.67
19624;BME280;9959;49.798;9.928;2023-04-28T13:10:19;99234.84;;;16.18;87.63
19624;BME280;9959;49.798;9.928;2023-04-28T13:12:48;99240.09;;;15.98;90.30
19624;BME280;9959;49.798;9.928;2023-04-28T13:15:15;99231.38;;;15.96;89.58
19624;BME280;9959;49.798;9.928;2023-04-28T13:17:42;99214.16;;;16.12;87.94
19624;BME280;9959;49.798;9.928;2023-04-28T13:20:11;99223.81;;;15.98;89.14
19624;BME280;9959;49.798;9.928;2023-04-28T13:22:38;99212.91;;;16.62;86.71
19624;BME280;9959;49.798;9.928;2023-04-28T13:25:06;99204.69;;;16.51;85.66
19624;BME280;9959;49.798;9.928;2023-04-28T13:27:33;99194.16;;;17.07;85.24
19624;BME280;9959;49.798;9.928;2023-04-28T13:30:01;99184.00;;;16.87;84.17
19624;BME280;9959;49.798;9.928;2023-04-28T13:32:29;99191.22;;;17.19;83.34
19624;BME280;9959;49.798;9.928;2023-04-28T13:34:57;99183.19;;;16.87;84.41
19624;BME280;9959;49.798;9.928;2023-04-28T13:37:24;99188.19;;;17.10;83.19
19624;BME280;9959;49.798;9.928;2023-04-28T13:39:51;99183.47;;;17.63;80.46
19624;BME280;9959;49.798;9.928;2023-04-28T13:42:17;99184.84;;;16.98;83.95
19624;BME280;9959;49.798;9.928;2023-04-28T13:44:44;99178.19;;;16.74;84.47
19624;BME280;9959;49.798;9.928;2023-04-28T13:47:14;99183.22;;;16.92;85.28
19624;BME280;9959;49.798;9.928;2023-04-28T13:49:41;99182.00;;;16.73;85.98
19624;BME280;9959;49.798;9.928;2023-04-28T13:52:09;99187.19;;;16.42;87.92